sensor_id;sensor_type;location;lat;lon;timestamp;P1;durP1;ratioP1;P2;durP2;ratioP2
55222;SDS011;41090;48.632;12.428;2023-10-13T00:00:55;10.57;;;8.33;;
55222;SDS011;41090;48.632;12.428;2023-10-13T00:03:22;10.57;;;8.53;;
55222;SDS011;41090;48.632;12.428;2023-10-13T00:05:47;11.13;;;8.80;;
55222;SDS011;41090;48.632;12.428;2023-10-13T00:08:17;10.73;;;8.53;;
55222;SDS011;41090;48.632;12.428;2023-10-13T00:10:42;11.80;;;8.47;;
55222;SDS011;41090;48.632;12.428;2023-10-13T00:13:08;14.00;;;9.73;;
55222;SDS011;41090;48.632;12.428;2023-10-13T00:15:45;11.97;;;9.73;;
55222;SDS011;41090;48.632;12.428;2023-10-13T00:18:26;12.27;;;9.53;;
55222;SDS011;41090;48.632;12.428;2023-10-13T00:20:52;12.80;;;9.47;;
55222;SDS011;41090;48.632;12.428;2023-10-13T00:23:21;10.17;;;8.27;;
55222;SDS011;41090;48.632;12.428;2023-10-13T00:25:50;12.40;;;9.60;;
55222;SDS011;41090;48.632;12.428;2023-10-13T00:28:18;12.10;;;8.37;;
55222;SDS011;41090;48.632;12.428;2023-10-13T00:30:49;14.03;;;9.20;;
55222;SDS011;41090;48.632;12.428;2023-10-13T00:33:17;11.00;;;8.50;;
55222;SDS011;41090;48.632;12.428;2023-10-13T00:35:45;10.00;;;8.37;;
55222;SDS011;41090;48.632;12.428;2023-10-13T00:38:12;10.07;;;8.30;;
55222;SDS011;41090;48.632;12.428;2023-10-13T00:40:38;9.30;;;7.97;;
55222;SDS011;41090;48.632;12.428;2023-10-13T00:43:03;10.77;;;8.03;;
55222;SDS011;41090;48.632;12.428;2023-10-13T00:45:47;10.47;;;8.87;;
55222;SDS011;41090;48.632;12.428;2023-10-13T00:48:20;10.30;;;8.20;;
55222;SDS011;41090;48.632;12.428;2023-10-13T00:50:49;10.37;;;8.90;;
55222;SDS011;41090;48.632;12.428;2023-10-13T00:53:14;10.07;;;8.83;;
55222;SDS011;41090;48.632;12.428;2023-10-13T00:55:39;12.87;;;8.60;;
55222;SDS011;41090;48.632;12.428;2023-10-13T00:58:06;11.77;;;7.80;;
55222;SDS011;41090;48.632;12.428;2023-10-13T01:00:33;13.63;;;8.03;;
55222;SDS011;41090;48.632;12.428;2023-10-13T01:03:11;12.53;;;7.73;;
55222;SDS011;41090;48.632;12.428;2023-10-13T01:05:37;9.50;;;7.77;;
55222;SDS011;41090;48.632;12.428;2023-10-13T01:08:04;10.47;;;8.60;;
55222;SDS011;41090;48.632;12.428;2023-10-13T01:10:29;11.27;;;8.70;;
55222;SDS011;41090;48.632;12.428;2023-10-13T01:12:57;16.17;;;9.53;;
55222;SDS011;41090;48.632;12.428;2023-10-13T01:15:24;10.30;;;8.03;;
55222;SDS011;41090;48.632;12.428;2023-10-13T01:17:54;10.00;;;8.33;;
55222;SDS011;41090;48.632;12.428;2023-10-13T01:20:21;10.37;;;8.50;;
55222;SDS011;41090;48.632;12.428;2023-10-13T01:22:50;10.80;;;7.90;;
55222;SDS011;41090;48.632;12.428;2023-10-13T01:25:22;11.97;;;8.20;;
55222;SDS011;41090;48.632;12.428;2023-10-13T01:27:50;9.27;;;7.60;;
55222;SDS011;41090;48.632;12.428;2023-10-13T01:30:16;10.50;;;7.53;;
55222;SDS011;41090;48.632;12.428;2023-10-13T01:32:41;8.50;;;7.57;;
55222;SDS011;41090;48.632;12.428;2023-10-13T01:35:10;9.67;;;7.60;;
55222;SDS011;41090;48.632;12.428;2023-10-13T01:37:36;8.77;;;7.30;;
55222;SDS011;41090;48.632;12.428;2023-10-13T01:40:01;9.77;;;7.47;;
55222;SDS011;41090;48.632;12.428;2023-10-13T01:42:26;11.03;;;7.40;;
55222;SDS011;41090;48.632;12.428;2023-10-13T01:44:53;12.00;;;8.10;;
55222;SDS011;41090;48.632;12.428;2023-10-13T01:47:31;10.93;;;8.10;;
55222;SDS011;41090;48.632;12.428;2023-10-13T01:49:58;9.90;;;7.40;;
55222;SDS011;41090;48.632;12.428;2023-10-13T01:52:23;11.07;;;7.77;;
55222;SDS011;41090;48.632;12.428;2023-10-13T01:54:52;11.23;;;8.00;;
55222;SDS011;41090;48.632;12.428;2023-10-13T01:57:19;14.57;;;8.53;;
55222;SDS011;41090;48.632;12.428;2023-10-13T01:59:49;10.77;;;8.00;;
55222;SDS011;41090;48.632;12.428;2023-10-13T02:02:14;10.63;;;8.13;;
55222;SDS011;41090;48.632;12.428;2023-10-13T02:04:41;12.50;;;7.40;;
55222;SDS011;41090;48.632;12.428;2023-10-13T02:07:21;8.97;;;7.50;;
55222;SDS011;41090;48.632;12.428;2023-10-13T02:09:51;9.47;;;7.30;;
55222;SDS011;41090;48.632;12.428;2023-10-13T02:12:19;9.80;;;7.30;;
55222;SDS011;41090;48.632;12.428;2023-10-13T02:14:50;10.57;;;7.00;;
55222;SDS011;41090;48.632;12.428;2023-10-13T02:17:15;8.77;;;6.97;;
55222;SDS011;41090;48.632;12.428;2023-10-13T02:19:41;7.90;;;6.57;;
55222;SDS011;41090;48.632;12.428;2023-10-13T02:22:10;7.60;;;6.80;;
55222;SDS011;41090;48.632;12.428;2023-10-13T02:24:36;9.30;;;6.20;;
55222;SDS011;41090;48.632;12.428;2023-10-13T02:27:05;10.03;;;7.07;;
55222;SDS011;41090;48.632;12.428;2023-10-13T02:29:38;15.50;;;7.53;;
55222;SDS011;41090;48.632;12.428;2023-10-13T02:32:04;10.17;;;6.57;;
55222;SDS011;41090;48.632;12.428;2023-10-13T02:34:30;7.60;;;6.17;;
55222;SDS011;41090;48.632;12.428;2023-10-13T02:36:56;10.53;;;6.83;;
55222;SDS011;41090;48.632;12.428;2023-10-13T02:39:21;6.93;;;6.20;;
55222;SDS011;41090;48.632;12.428;2023-10-13T02:41:51;10.00;;;6.53;;
55222;SDS011;41090;48.632;12.428;2023-10-13T02:44:17;9.43;;;6.80;;
55222;SDS011;41090;48.632;12.428;2023-10-13T02:47:02;6.27;;;5.60;;
55222;SDS011;41090;48.632;12.428;2023-10-13T02:49:30;7.60;;;5.90;;
55222;SDS011;41090;48.632;12.428;2023-10-13T02:51:58;8.77;;;5.97;;
55222;SDS011;41090;48.632;12.428;2023-10-13T02:54:29;7.10;;;6.27;;
55222;SDS011;41090;48.632;12.428;2023-10-13T02:57:04;7.80;;;6.13;;
55222;SDS011;41090;48.632;12.428;2023-10-13T02:59:30;7.33;;;5.90;;
55222;SDS011;41090;48.632;12.428;2023-10-13T03:02:21;8.13;;;6.40;;
55222;SDS011;41090;48.632;12.428;2023-10-13T03:04:50;11.63;;;6.67;;
55222;SDS011;41090;48.632;12.428;2023-10-13T03:07:16;7.73;;;5.80;;
55222;SDS011;41090;48.632;12.428;2023-10-13T03:09:47;7.53;;;6.13;;
55222;SDS011;41090;48.632;12.428;2023-10-13T03:12:16;8.47;;;6.20;;
55222;SDS011;41090;48.632;12.428;2023-10-13T03:14:42;6.70;;;5.80;;
55222;SDS011;41090;48.632;12.428;2023-10-13T03:17:07;7.17;;;5.70;;
55222;SDS011;41090;48.632;12.428;2023-10-13T03:19:42;6.63;;;5.37;;
55222;SDS011;41090;48.632;12.428;2023-10-13T03:22:11;13.70;;;7.00;;
55222;SDS011;41090;48.632;12.428;2023-10-13T03:24:37;9.70;;;6.37;;
55222;SDS011;41090;48.632;12.428;2023-10-13T03:27:09;9.63;;;6.63;;
55222;SDS011;41090;48.632;12.428;2023-10-13T03:29:35;10.33;;;6.60;;
55222;SDS011;41090;48.632;12.428;2023-10-13T03:32:01;7.37;;;5.30;;
55222;SDS011;41090;48.632;12.428;2023-10-13T03:34:32;8.10;;;5.90;;
55222;SDS011;41090;48.632;12.428;2023-10-13T03:36:57;6.77;;;5.63;;
55222;SDS011;41090;48.632;12.428;2023-10-13T03:39:23;8.17;;;6.00;;
55222;SDS011;41090;48.632;12.428;2023-10-13T03:41:56;10.17;;;6.17;;
55222;SDS011;41090;48.632;12.428;2023-10-13T03:44:22;9.20;;;5.80;;
55222;SDS011;41090;48.632;12.428;2023-10-13T03:46:48;7.33;;;5.83;;
55222;SDS011;41090;48.632;12.428;2023-10-13T03:49:14;7.03;;;5.93;;
55222;SDS011;41090;48.632;12.428;2023-10-13T03:51:39;7.33;;;6.00;;
55222;SDS011;41090;48.632;12.428;2023-10-13T03:54:05;7.53;;;5.80;;
55222;SDS011;41090;48.632;12.428;2023-10-13T03:56:34;5.93;;;4.93;;
55222;SDS011;41090;48.632;12.428;2023-10-13T03:59:05;6.80;;;5.30;;
55222;SDS011;41090;48.632;12.428;2023-10-13T04:01:34;5.80;;;5.20;;
55222;SDS011;41090;48.632;12.428;2023-10-13T04:04:10;6.13;;;5.53;;
55222;SDS011;41090;48.632;12.428;2023-10-13T04:06:58;7.37;;;6.20;;
55222;SDS011;41090;48.632;12.428;2023-10-13T04:09:39;9.70;;;6.50;;
55222;SDS011;41090;48.632;12.428;2023-10-13T04:12:05;7.97;;;5.70;;
55222;SDS011;41090;48.632;12.428;2023-10-13T04:14:31;8.17;;;6.77;;
55222;SDS011;41090;48.632;12.428;2023-10-13T04:17:15;5.83;;;5.23;;
55222;SDS011;41090;48.632;12.428;2023-10-13T04:19:41;7.37;;;5.77;;
55222;SDS011;41090;48.632;12.428;2023-10-13T04:22:38;8.77;;;6.13;;
55222;SDS011;41090;48.632;12.428;2023-10-13T04:25:16;8.03;;;6.00;;
55222;SDS011;41090;48.632;12.428;2023-10-13T04:28:07;6.97;;;6.27;;
55222;SDS011;41090;48.632;12.428;2023-10-13T04:38:42;7.93;;;6.10;;
55222;SDS011;41090;48.632;12.428;2023-10-13T04:41:27;7.93;;;6.60;;
55222;SDS011;41090;48.632;12.428;2023-10-13T04:44:04;7.30;;;6.60;;
55222;SDS011;41090;48.632;12.428;2023-10-13T04:46:30;6.90;;;6.10;;
55222;SDS011;41090;48.632;12.428;2023-10-13T04:49:10;6.50;;;5.80;;
55222;SDS011;41090;48.632;12.428;2023-10-13T04:51:51;6.40;;;5.77;;
55222;SDS011;41090;48.632;12.428;2023-10-13T04:54:38;8.63;;;6.43;;
55222;SDS011;41090;48.632;12.428;2023-10-13T04:57:10;6.77;;;5.80;;
55222;SDS011;41090;48.632;12.428;2023-10-13T04:59:53;10.97;;;6.40;;
55222;SDS011;41090;48.632;12.428;2023-10-13T05:02:34;7.17;;;5.57;;
55222;SDS011;41090;48.632;12.428;2023-10-13T05:05:07;10.17;;;7.13;;
55222;SDS011;41090;48.632;12.428;2023-10-13T05:07:38;7.60;;;6.10;;
55222;SDS011;41090;48.632;12.428;2023-10-13T05:10:22;7.73;;;5.70;;
55222;SDS011;41090;48.632;12.428;2023-10-13T05:13:06;8.97;;;6.40;;
55222;SDS011;41090;48.632;12.428;2023-10-13T05:15:50;7.30;;;6.17;;
55222;SDS011;41090;48.632;12.428;2023-10-13T05:18:34;11.40;;;6.83;;
55222;SDS011;41090;48.632;12.428;2023-10-13T05:21:19;11.40;;;6.33;;
55222;SDS011;41090;48.632;12.428;2023-10-13T05:24:03;10.43;;;6.53;;
55222;SDS011;41090;48.632;12.428;2023-10-13T05:26:47;13.67;;;7.03;;
55222;SDS011;41090;48.632;12.428;2023-10-13T05:29:31;14.50;;;6.43;;
55222;SDS011;41090;48.632;12.428;2023-10-13T05:32:15;12.80;;;5.83;;
55222;SDS011;41090;48.632;12.428;2023-10-13T05:34:59;13.37;;;5.97;;
55222;SDS011;41090;48.632;12.428;2023-10-13T05:37:43;15.60;;;6.70;;
55222;SDS011;41090;48.632;12.428;2023-10-13T05:40:27;12.80;;;5.83;;
55222;SDS011;41090;48.632;12.428;2023-10-13T05:43:11;16.60;;;6.43;;
55222;SDS011;41090;48.632;12.428;2023-10-13T05:46:02;13.80;;;5.93;;
55222;SDS011;41090;48.632;12.428;2023-10-13T05:49:01;8.93;;;5.63;;
55222;SDS011;41090;48.632;12.428;2023-10-13T05:51:28;11.13;;;6.10;;
55222;SDS011;41090;48.632;12.428;2023-10-13T05:54:03;10.10;;;5.77;;
55222;SDS011;41090;48.632;12.428;2023-10-13T05:56:34;10.10;;;6.20;;
55222;SDS011;41090;48.632;12.428;2023-10-13T05:59:18;10.53;;;6.97;;
55222;SDS011;41090;48.632;12.428;2023-10-13T06:02:02;12.70;;;6.30;;
55222;SDS011;41090;48.632;12.428;2023-10-13T06:04:57;7.83;;;6.03;;
55222;SDS011;41090;48.632;12.428;2023-10-13T06:07:40;12.53;;;5.90;;
55222;SDS011;41090;48.632;12.428;2023-10-13T06:10:24;8.63;;;6.17;;
55222;SDS011;41090;48.632;12.428;2023-10-13T06:13:08;13.03;;;6.70;;
55222;SDS011;41090;48.632;12.428;2023-10-13T06:15:52;8.70;;;6.23;;
55222;SDS011;41090;48.632;12.428;2023-10-13T06:18:36;8.67;;;6.97;;
55222;SDS011;41090;48.632;12.428;2023-10-13T06:21:20;7.90;;;6.20;;
55222;SDS011;41090;48.632;12.428;2023-10-13T06:24:04;12.57;;;6.20;;
55222;SDS011;41090;48.632;12.428;2023-10-13T06:26:49;9.40;;;6.33;;
55222;SDS011;41090;48.632;12.428;2023-10-13T06:29:32;7.87;;;6.20;;
55222;SDS011;41090;48.632;12.428;2023-10-13T06:31:58;11.53;;;6.70;;
55222;SDS011;41090;48.632;12.428;2023-10-13T06:34:23;7.73;;;6.07;;
55222;SDS011;41090;48.632;12.428;2023-10-13T06:37:03;8.13;;;6.80;;
55222;SDS011;41090;48.632;12.428;2023-10-13T06:39:46;8.17;;;6.63;;
55222;SDS011;41090;48.632;12.428;2023-10-13T06:42:12;8.67;;;6.87;;
55222;SDS011;41090;48.632;12.428;2023-10-13T06:44:37;7.63;;;6.83;;
55222;SDS011;41090;48.632;12.428;2023-10-13T06:47:04;8.10;;;7.20;;
55222;SDS011;41090;48.632;12.428;2023-10-13T06:49:30;9.00;;;6.63;;
55222;SDS011;41090;48.632;12.428;2023-10-13T06:51:57;8.67;;;6.77;;
55222;SDS011;41090;48.632;12.428;2023-10-13T06:54:25;9.30;;;6.73;;
55222;SDS011;41090;48.632;12.428;2023-10-13T06:56:50;8.20;;;6.43;;
55222;SDS011;41090;48.632;12.428;2023-10-13T06:59:17;10.47;;;6.77;;
55222;SDS011;41090;48.632;12.428;2023-10-13T07:01:42;10.27;;;7.93;;
55222;SDS011;41090;48.632;12.428;2023-10-13T07:04:09;9.67;;;7.47;;
55222;SDS011;41090;48.632;12.428;2023-10-13T07:06:41;8.20;;;7.10;;
55222;SDS011;41090;48.632;12.428;2023-10-13T07:09:14;10.73;;;6.83;;
55222;SDS011;41090;48.632;12.428;2023-10-13T07:11:58;10.80;;;7.20;;
55222;SDS011;41090;48.632;12.428;2023-10-13T07:14:25;13.23;;;6.83;;
55222;SDS011;41090;48.632;12.428;2023-10-13T07:16:59;12.67;;;7.77;;
55222;SDS011;41090;48.632;12.428;2023-10-13T07:19:25;9.60;;;6.90;;
55222;SDS011;41090;48.632;12.428;2023-10-13T07:22:02;10.30;;;6.90;;
55222;SDS011;41090;48.632;12.428;2023-10-13T07:24:46;12.43;;;8.00;;
55222;SDS011;41090;48.632;12.428;2023-10-13T07:27:14;8.23;;;6.83;;
55222;SDS011;41090;48.632;12.428;2023-10-13T07:29:47;9.53;;;7.20;;
55222;SDS011;41090;48.632;12.428;2023-10-13T07:32:14;12.07;;;7.47;;
55222;SDS011;41090;48.632;12.428;2023-10-13T07:34:49;14.10;;;7.97;;
55222;SDS011;41090;48.632;12.428;2023-10-13T07:37:14;10.60;;;7.40;;
55222;SDS011;41090;48.632;12.428;2023-10-13T07:39:41;12.00;;;7.20;;
55222;SDS011;41090;48.632;12.428;2023-10-13T07:42:07;12.80;;;6.65;;
55222;SDS011;41090;48.632;12.428;2023-10-13T07:44:40;13.23;;;6.43;;
55222;SDS011;41090;48.632;12.428;2023-10-13T07:47:11;11.30;;;5.60;;
55222;SDS011;41090;48.632;12.428;2023-10-13T07:49:37;8.65;;;5.50;;
55222;SDS011;41090;48.632;12.428;2023-10-13T07:52:03;11.43;;;5.35;;
55222;SDS011;41090;48.632;12.428;2023-10-13T07:54:45;8.18;;;4.47;;
55222;SDS011;41090;48.632;12.428;2023-10-13T07:57:21;6.13;;;4.18;;
55222;SDS011;41090;48.632;12.428;2023-10-13T07:59:54;6.25;;;5.22;;
55222;SDS011;41090;48.632;12.428;2023-10-13T08:02:31;6.53;;;4.78;;
55222;SDS011;41090;48.632;12.428;2023-10-13T08:05:16;5.93;;;4.47;;
55222;SDS011;41090;48.632;12.428;2023-10-13T08:07:54;5.90;;;4.50;;
55222;SDS011;41090;48.632;12.428;2023-10-13T08:10:21;7.82;;;4.63;;
55222;SDS011;41090;48.632;12.428;2023-10-13T08:12:52;7.28;;;5.00;;
55222;SDS011;41090;48.632;12.428;2023-10-13T08:15:19;6.82;;;4.75;;
55222;SDS011;41090;48.632;12.428;2023-10-13T08:17:57;9.82;;;4.57;;
55222;SDS011;41090;48.632;12.428;2023-10-13T08:20:24;7.95;;;5.22;;
55222;SDS011;41090;48.632;12.428;2023-10-13T08:22:51;10.88;;;5.10;;
55222;SDS011;41090;48.632;12.428;2023-10-13T08:25:35;7.50;;;4.72;;
55222;SDS011;41090;48.632;12.428;2023-10-13T08:28:18;6.60;;;4.57;;
55222;SDS011;41090;48.632;12.428;2023-10-13T08:31:03;6.40;;;4.72;;
55222;SDS011;41090;48.632;12.428;2023-10-13T08:33:40;7.60;;;4.47;;
55222;SDS011;41090;48.632;12.428;2023-10-13T08:36:11;6.28;;;4.28;;
55222;SDS011;41090;48.632;12.428;2023-10-13T08:38:53;6.05;;;4.07;;
55222;SDS011;41090;48.632;12.428;2023-10-13T08:41:20;4.70;;;3.72;;
55222;SDS011;41090;48.632;12.428;2023-10-13T08:43:45;5.30;;;3.97;;
55222;SDS011;41090;48.632;12.428;2023-10-13T08:46:15;5.60;;;3.97;;
55222;SDS011;41090;48.632;12.428;2023-10-13T08:48:55;6.90;;;3.42;;
55222;SDS011;41090;48.632;12.428;2023-10-13T08:51:35;10.18;;;3.95;;
55222;SDS011;41090;48.632;12.428;2023-10-13T08:54:17;6.05;;;3.75;;
55222;SDS011;41090;48.632;12.428;2023-10-13T08:56:58;6.35;;;4.00;;
55222;SDS011;41090;48.632;12.428;2023-10-13T08:59:30;7.80;;;4.05;;
55222;SDS011;41090;48.632;12.428;2023-10-13T09:02:08;6.70;;;3.65;;
55222;SDS011;41090;48.632;12.428;2023-10-13T09:04:43;6.53;;;3.30;;
55222;SDS011;41090;48.632;12.428;2023-10-13T09:07:12;5.47;;;3.47;;
55222;SDS011;41090;48.632;12.428;2023-10-13T09:09:50;6.82;;;3.30;;
55222;SDS011;41090;48.632;12.428;2023-10-13T09:14:51;4.15;;;3.30;;
55222;SDS011;41090;48.632;12.428;2023-10-13T09:17:23;7.45;;;3.20;;
55222;SDS011;41090;48.632;12.428;2023-10-13T09:20:11;8.98;;;3.22;;
55222;SDS011;41090;48.632;12.428;2023-10-13T09:22:55;4.97;;;3.20;;
55222;SDS011;41090;48.632;12.428;2023-10-13T09:25:27;4.43;;;2.92;;
55222;SDS011;41090;48.632;12.428;2023-10-13T09:27:58;6.72;;;3.50;;
55222;SDS011;41090;48.632;12.428;2023-10-13T09:30:25;7.93;;;3.33;;
55222;SDS011;41090;48.632;12.428;2023-10-13T09:33:00;5.90;;;3.08;;
55222;SDS011;41090;48.632;12.428;2023-10-13T09:35:27;5.43;;;3.28;;
55222;SDS011;41090;48.632;12.428;2023-10-13T09:37:52;8.20;;;3.00;;
55222;SDS011;41090;48.632;12.428;2023-10-13T09:40:21;5.53;;;3.10;;
55222;SDS011;41090;48.632;12.428;2023-10-13T09:42:50;7.75;;;3.30;;
55222;SDS011;41090;48.632;12.428;2023-10-13T09:45:16;8.15;;;3.25;;
55222;SDS011;41090;48.632;12.428;2023-10-13T09:47:43;8.25;;;3.22;;
55222;SDS011;41090;48.632;12.428;2023-10-13T09:50:09;6.68;;;3.10;;
55222;SDS011;41090;48.632;12.428;2023-10-13T09:52:38;10.23;;;3.80;;
55222;SDS011;41090;48.632;12.428;2023-10-13T09:55:09;12.40;;;3.40;;
55222;SDS011;41090;48.632;12.428;2023-10-13T09:57:37;6.20;;;2.97;;
55222;SDS011;41090;48.632;12.428;2023-10-13T10:00:10;7.25;;;2.88;;
55222;SDS011;41090;48.632;12.428;2023-10-13T10:03:05;8.23;;;3.53;;
55222;SDS011;41090;48.632;12.428;2023-10-13T10:05:41;6.07;;;3.28;;
55222;SDS011;41090;48.632;12.428;2023-10-13T10:08:06;6.53;;;2.88;;
55222;SDS011;41090;48.632;12.428;2023-10-13T10:10:51;10.95;;;3.45;;
55222;SDS011;41090;48.632;12.428;2023-10-13T10:13:32;5.18;;;3.05;;
55222;SDS011;41090;48.632;12.428;2023-10-13T10:16:01;8.32;;;3.50;;
55222;SDS011;41090;48.632;12.428;2023-10-13T10:18:29;6.55;;;3.17;;
55222;SDS011;41090;48.632;12.428;2023-10-13T10:21:04;6.47;;;3.13;;
55222;SDS011;41090;48.632;12.428;2023-10-13T10:23:36;5.60;;;2.83;;
55222;SDS011;41090;48.632;12.428;2023-10-13T10:26:14;6.13;;;2.95;;
55222;SDS011;41090;48.632;12.428;2023-10-13T10:28:42;5.40;;;3.15;;
55222;SDS011;41090;48.632;12.428;2023-10-13T10:31:07;8.98;;;3.50;;
55222;SDS011;41090;48.632;12.428;2023-10-13T10:33:37;9.13;;;3.15;;
55222;SDS011;41090;48.632;12.428;2023-10-13T10:36:02;8.30;;;3.28;;
55222;SDS011;41090;48.632;12.428;2023-10-13T10:38:27;5.40;;;2.83;;
55222;SDS011;41090;48.632;12.428;2023-10-13T10:40:56;8.80;;;3.13;;
55222;SDS011;41090;48.632;12.428;2023-10-13T10:43:43;3.97;;;2.70;;
55222;SDS011;41090;48.632;12.428;2023-10-13T10:46:08;6.05;;;2.80;;
55222;SDS011;41090;48.632;12.428;2023-10-13T10:48:35;6.00;;;3.00;;
55222;SDS011;41090;48.632;12.428;2023-10-13T10:51:03;5.20;;;2.90;;
55222;SDS011;41090;48.632;12.428;2023-10-13T10:53:33;8.88;;;2.97;;
55222;SDS011;41090;48.632;12.428;2023-10-13T10:56:08;8.77;;;3.22;;
55222;SDS011;41090;48.632;12.428;2023-10-13T10:58:44;6.88;;;3.03;;
55222;SDS011;41090;48.632;12.428;2023-10-13T11:01:10;6.25;;;3.00;;
55222;SDS011;41090;48.632;12.428;2023-10-13T11:03:36;12.98;;;3.08;;
55222;SDS011;41090;48.632;12.428;2023-10-13T11:06:03;13.27;;;3.00;;
55222;SDS011;41090;48.632;12.428;2023-10-13T11:08:29;8.85;;;3.28;;
55222;SDS011;41090;48.632;12.428;2023-10-13T11:10:58;6.68;;;2.75;;
55222;SDS011;41090;48.632;12.428;2023-10-13T11:13:25;4.97;;;2.80;;
55222;SDS011;41090;48.632;12.428;2023-10-13T11:15:55;8.02;;;3.20;;
55222;SDS011;41090;48.632;12.428;2023-10-13T11:18:30;6.90;;;3.08;;
55222;SDS011;41090;48.632;12.428;2023-10-13T11:21:05;5.65;;;3.00;;
55222;SDS011;41090;48.632;12.428;2023-10-13T11:23:32;5.45;;;2.75;;
55222;SDS011;41090;48.632;12.428;2023-10-13T11:26:02;4.88;;;2.97;;
55222;SDS011;41090;48.632;12.428;2023-10-13T11:28:29;7.25;;;2.97;;
55222;SDS011;41090;48.632;12.428;2023-10-13T11:30:57;4.85;;;2.80;;
55222;SDS011;41090;48.632;12.428;2023-10-13T11:33:25;4.70;;;2.92;;
55222;SDS011;41090;48.632;12.428;2023-10-13T11:35:57;7.85;;;3.05;;
55222;SDS011;41090;48.632;12.428;2023-10-13T11:38:26;5.05;;;2.83;;
55222;SDS011;41090;48.632;12.428;2023-10-13T11:40:59;6.15;;;3.13;;
55222;SDS011;41090;48.632;12.428;2023-10-13T11:46:00;8.00;;;3.40;;
55222;SDS011;41090;48.632;12.428;2023-10-13T11:48:34;7.70;;;2.92;;
55222;SDS011;41090;48.632;12.428;2023-10-13T11:51:01;5.70;;;3.05;;
55222;SDS011;41090;48.632;12.428;2023-10-13T11:53:32;6.13;;;2.90;;
55222;SDS011;41090;48.632;12.428;2023-10-13T11:55:57;6.68;;;3.17;;
55222;SDS011;41090;48.632;12.428;2023-10-13T11:58:23;6.53;;;3.23;;
55222;SDS011;41090;48.632;12.428;2023-10-13T12:00:48;7.03;;;3.40;;
55222;SDS011;41090;48.632;12.428;2023-10-13T12:03:18;8.50;;;3.13;;
55222;SDS011;41090;48.632;12.428;2023-10-13T12:06:02;4.88;;;2.92;;
55222;SDS011;41090;48.632;12.428;2023-10-13T12:08:46;8.80;;;3.25;;
55222;SDS011;41090;48.632;12.428;2023-10-13T12:11:15;7.93;;;3.10;;
55222;SDS011;41090;48.632;12.428;2023-10-13T12:13:56;3.08;;;2.50;;
55222;SDS011;41090;48.632;12.428;2023-10-13T12:16:21;5.65;;;3.22;;
55222;SDS011;41090;48.632;12.428;2023-10-13T12:18:47;7.47;;;3.28;;
55222;SDS011;41090;48.632;12.428;2023-10-13T12:21:18;7.45;;;3.10;;
55222;SDS011;41090;48.632;12.428;2023-10-13T12:23:44;5.97;;;3.00;;
55222;SDS011;41090;48.632;12.428;2023-10-13T12:26:10;5.80;;;2.88;;
55222;SDS011;41090;48.632;12.428;2023-10-13T12:28:44;6.75;;;3.03;;
55222;SDS011;41090;48.632;12.428;2023-10-13T12:31:16;5.32;;;3.20;;
55222;SDS011;41090;48.632;12.428;2023-10-13T12:33:42;6.03;;;3.20;;
55222;SDS011;41090;48.632;12.428;2023-10-13T12:36:07;6.03;;;2.80;;
55222;SDS011;41090;48.632;12.428;2023-10-13T12:38:36;7.15;;;3.42;;
55222;SDS011;41090;48.632;12.428;2023-10-13T12:41:05;6.30;;;3.20;;
55222;SDS011;41090;48.632;12.428;2023-10-13T12:43:48;6.03;;;2.85;;
55222;SDS011;41090;48.632;12.428;2023-10-13T12:46:36;5.85;;;2.72;;
55222;SDS011;41090;48.632;12.428;2023-10-13T12:49:20;7.18;;;2.97;;
55222;SDS011;41090;48.632;12.428;2023-10-13T12:52:04;7.60;;;3.45;;
55222;SDS011;41090;48.632;12.428;2023-10-13T12:54:30;6.70;;;3.15;;
55222;SDS011;41090;48.632;12.428;2023-10-13T12:57:04;10.65;;;2.90;;
55222;SDS011;41090;48.632;12.428;2023-10-13T12:59:34;9.63;;;2.95;;
55222;SDS011;41090;48.632;12.428;2023-10-13T13:01:59;8.82;;;3.10;;
55222;SDS011;41090;48.632;12.428;2023-10-13T13:04:24;7.07;;;2.92;;
55222;SDS011;41090;48.632;12.428;2023-10-13T13:06:56;6.97;;;2.85;;
55222;SDS011;41090;48.632;12.428;2023-10-13T13:09:22;8.27;;;2.97;;
55222;SDS011;41090;48.632;12.428;2023-10-13T13:11:56;11.35;;;3.63;;
55222;SDS011;41090;48.632;12.428;2023-10-13T13:14:24;5.07;;;2.80;;
55222;SDS011;41090;48.632;12.428;2023-10-13T13:16:56;7.55;;;3.00;;
55222;SDS011;41090;48.632;12.428;2023-10-13T13:19:31;11.77;;;3.25;;
55222;SDS011;41090;48.632;12.428;2023-10-13T13:21:59;7.13;;;2.72;;
55222;SDS011;41090;48.632;12.428;2023-10-13T13:24:24;7.78;;;3.10;;
55222;SDS011;41090;48.632;12.428;2023-10-13T13:26:49;8.37;;;3.40;;
55222;SDS011;41090;48.632;12.428;2023-10-13T13:29:19;7.90;;;3.30;;
55222;SDS011;41090;48.632;12.428;2023-10-13T13:31:44;7.80;;;2.83;;
55222;SDS011;41090;48.632;12.428;2023-10-13T13:34:11;6.78;;;3.03;;
55222;SDS011;41090;48.632;12.428;2023-10-13T13:36:37;7.53;;;2.95;;
55222;SDS011;41090;48.632;12.428;2023-10-13T13:39:03;9.18;;;3.28;;
55222;SDS011;41090;48.632;12.428;2023-10-13T13:41:29;8.38;;;3.08;;
55222;SDS011;41090;48.632;12.428;2023-10-13T13:43:57;10.02;;;3.42;;
55222;SDS011;41090;48.632;12.428;2023-10-13T13:46:26;8.65;;;3.08;;
55222;SDS011;41090;48.632;12.428;2023-10-13T13:48:58;9.68;;;3.67;;
55222;SDS011;41090;48.632;12.428;2023-10-13T13:51:26;8.00;;;3.33;;
55222;SDS011;41090;48.632;12.428;2023-10-13T13:53:52;8.38;;;3.10;;
55222;SDS011;41090;48.632;12.428;2023-10-13T13:56:18;7.35;;;3.38;;
55222;SDS011;41090;48.632;12.428;2023-10-13T13:58:49;8.55;;;3.40;;
55222;SDS011;41090;48.632;12.428;2023-10-13T14:01:15;6.32;;;3.30;;
55222;SDS011;41090;48.632;12.428;2023-10-13T14:03:41;5.78;;;2.90;;
55222;SDS011;41090;48.632;12.428;2023-10-13T14:06:10;8.55;;;3.30;;
55222;SDS011;41090;48.632;12.428;2023-10-13T14:08:42;8.18;;;3.22;;
55222;SDS011;41090;48.632;12.428;2023-10-13T14:11:09;9.93;;;3.05;;
55222;SDS011;41090;48.632;12.428;2023-10-13T14:13:38;7.15;;;2.92;;
55222;SDS011;41090;48.632;12.428;2023-10-13T14:16:16;8.15;;;3.08;;
55222;SDS011;41090;48.632;12.428;2023-10-13T14:18:42;6.57;;;2.80;;
55222;SDS011;41090;48.632;12.428;2023-10-13T14:21:07;5.65;;;2.67;;
55222;SDS011;41090;48.632;12.428;2023-10-13T14:23:33;5.87;;;3.03;;
55222;SDS011;41090;48.632;12.428;2023-10-13T14:25:59;7.15;;;3.00;;
55222;SDS011;41090;48.632;12.428;2023-10-13T14:28:24;7.90;;;3.00;;
55222;SDS011;41090;48.632;12.428;2023-10-13T14:30:57;8.93;;;3.10;;
55222;SDS011;41090;48.632;12.428;2023-10-13T14:33:22;8.40;;;3.50;;
55222;SDS011;41090;48.632;12.428;2023-10-13T14:35:50;9.35;;;3.20;;
55222;SDS011;41090;48.632;12.428;2023-10-13T14:38:15;5.03;;;2.70;;
55222;SDS011;41090;48.632;12.428;2023-10-13T14:40:41;7.63;;;2.93;;
55222;SDS011;41090;48.632;12.428;2023-10-13T14:43:06;8.35;;;3.15;;
55222;SDS011;41090;48.632;12.428;2023-10-13T14:45:34;7.13;;;2.88;;
55222;SDS011;41090;48.632;12.428;2023-10-13T14:48:00;8.23;;;3.10;;
55222;SDS011;41090;48.632;12.428;2023-10-13T14:50:26;9.43;;;3.38;;
55222;SDS011;41090;48.632;12.428;2023-10-13T14:52:53;6.43;;;2.90;;
55222;SDS011;41090;48.632;12.428;2023-10-13T14:55:18;6.35;;;2.95;;
55222;SDS011;41090;48.632;12.428;2023-10-13T14:57:47;8.95;;;2.90;;
55222;SDS011;41090;48.632;12.428;2023-10-13T15:00:14;6.65;;;3.10;;
55222;SDS011;41090;48.632;12.428;2023-10-13T15:02:39;15.00;;;3.55;;
55222;SDS011;41090;48.632;12.428;2023-10-13T15:05:08;10.18;;;3.28;;
55222;SDS011;41090;48.632;12.428;2023-10-13T15:07:33;9.57;;;3.35;;
55222;SDS011;41090;48.632;12.428;2023-10-13T15:09:58;6.10;;;2.83;;